Time;durP1;ratioP1;P1;durP2;ratioP2;P2;SDS_P1;SDS_P2;PMS_P1;PMS_P2;Temp;Humidity;BMP_temperature;BMP_pressure;BME280_temperature;BME280_humidity;BME280_pressure;Samples;Min_cycle;Max_cycle;Signal;HPM_P1;HPM_P2
2023/02/03 00:01:22;;;;;;;3.50;1.88;;;4.40;99.90;;;;;;5053395;28;20400;-44
2023/02/03 00:03:48;;;;;;;2.78;2.00;;;4.30;99.90;;;;;;5034624;28;20069;-44
2023/02/03 00:06:14;;;;;;;4.57;2.47;;;4.30;99.90;;;;;;5053474;28;20118;-42
2023/02/03 00:08:40;;;;;;;2.58;1.85;;;4.30;99.90;;;;;;5053233;28;20442;-42
2023/02/03 00:11:06;;;;;;;3.47;2.30;;;4.40;99.90;;;;;;5053139;28;20048;-42
2023/02/03 00:13:34;;;;;;;2.78;1.90;;;4.40;99.90;;;;;;5053392;28;20033;-44
2023/02/03 00:16:00;;;;;;;4.22;1.92;;;4.40;99.90;;;;;;5053275;28;20554;-44
2023/02/03 00:18:27;;;;;;;1.80;1.50;;;4.40;99.90;;;;;;5053612;28;20029;-44
2023/02/03 00:20:53;;;;;;;3.95;2.58;;;4.40;99.90;;;;;;5053177;28;20029;-43
2023/02/03 00:23:19;;;;;;;2.08;1.52;;;4.40;99.90;;;;;;5053378;28;20029;-43
2023/02/03 00:25:44;;;;;;;2.75;2.15;;;4.40;99.90;;;;;;5053320;28;20029;-43
2023/02/03 00:28:10;;;;;;;3.53;1.95;;;4.40;99.90;;;;;;5034276;28;20400;-43
2023/02/03 00:30:36;;;;;;;2.40;1.70;;;4.40;99.90;;;;;;5030757;28;20497;-44
2023/02/03 00:33:03;;;;;;;3.85;2.60;;;4.40;99.90;;;;;;5030706;28;20133;-44
2023/02/03 00:35:29;;;;;;;3.58;1.98;;;4.40;99.90;;;;;;5030737;28;20466;-43
2023/02/03 00:37:56;;;;;;;4.60;2.25;;;4.40;99.90;;;;;;5013973;28;20104;-44
2023/02/03 00:40:24;;;;;;;6.03;2.17;;;4.40;99.90;;;;;;5028067;28;20116;-44
2023/02/03 00:42:50;;;;;;;2.13;1.55;;;4.40;99.90;;;;;;5030750;28;20152;-44
2023/02/03 00:45:16;;;;;;;4.65;1.98;;;4.40;99.90;;;;;;5030665;28;20120;-44
2023/02/03 00:47:42;;;;;;;4.25;1.80;;;4.40;99.90;;;;;;5030566;28;20040;-44
2023/02/03 00:50:09;;;;;;;2.97;1.92;;;4.40;99.90;;;;;;5013913;28;20049;-49
2023/02/03 00:52:35;;;;;;;5.38;2.40;;;4.40;99.90;;;;;;5015370;28;20053;-44
2023/02/03 00:55:00;;;;;;;3.13;1.60;;;4.40;99.90;;;;;;5014115;28;20598;-44
2023/02/03 00:57:26;;;;;;;2.88;2.00;;;4.40;99.90;;;;;;5030622;28;20148;-44
2023/02/03 00:59:53;;;;;;;3.10;2.05;;;4.50;99.90;;;;;;5030524;28;20103;-44
2023/02/03 01:02:19;;;;;;;4.55;2.40;;;4.50;99.90;;;;;;5048261;28;20044;-43
2023/02/03 01:04:45;;;;;;;5.05;1.98;;;4.50;99.90;;;;;;5052611;28;20447;-44
2023/02/03 01:07:11;;;;;;;2.97;1.63;;;4.50;99.90;;;;;;5052606;28;20037;-44
2023/02/03 01:09:37;;;;;;;2.25;1.35;;;4.40;99.90;;;;;;5034152;28;20123;-43
2023/02/03 01:12:04;;;;;;;2.53;1.50;;;4.40;99.90;;;;;;5017339;28;20048;-45
2023/02/03 01:14:30;;;;;;;2.55;1.50;;;4.40;99.90;;;;;;5034024;28;20071;-44
2023/02/03 01:16:56;;;;;;;4.25;1.52;;;4.50;99.90;;;;;;5033772;28;20037;-42
2023/02/03 01:19:21;;;;;;;1.67;1.30;;;4.50;99.90;;;;;;5033880;28;20041;-44
2023/02/03 01:21:47;;;;;;;1.75;1.20;;;4.50;99.90;;;;;;5033781;28;20090;-43
2023/02/03 01:24:13;;;;;;;2.47;1.60;;;4.50;99.90;;;;;;5052181;28;20020;-43
2023/02/03 01:26:40;;;;;;;4.82;1.70;;;4.60;99.90;;;;;;5052506;28;20036;-42
2023/02/03 01:29:07;;;;;;;3.55;2.10;;;4.50;99.90;;;;;;5052543;28;20017;-43
2023/02/03 01:31:35;;;;;;;3.22;1.70;;;4.50;99.90;;;;;;5052565;28;20151;-44
2023/02/03 01:34:02;;;;;;;7.70;2.75;;;4.50;99.90;;;;;;5055574;28;20081;-43
2023/02/03 01:36:30;;;;;;;6.30;4.25;;;4.50;99.90;;;;;;5055823;28;20106;-44
2023/02/03 01:38:56;;;;;;;12.63;7.88;;;4.50;99.90;;;;;;5055787;28;20021;-44
2023/02/03 01:41:26;;;;;;;15.27;9.63;;;4.50;99.90;;;;;;5055710;28;20032;-44
2023/02/03 01:43:54;;;;;;;8.50;5.38;;;4.50;99.90;;;;;;5055707;28;20044;-44
2023/02/03 01:46:23;;;;;;;7.82;5.85;;;4.50;99.90;;;;;;5055448;28;20090;-44
2023/02/03 01:48:50;;;;;;;8.38;5.93;;;4.50;99.90;;;;;;5061244;28;20477;-43
2023/02/03 01:51:16;;;;;;;3.75;3.13;;;4.50;99.90;;;;;;5061176;28;20075;-43
2023/02/03 01:53:43;;;;;;;3.00;2.00;;;4.50;99.90;;;;;;5058262;28;20033;-42
2023/02/03 01:56:10;;;;;;;2.70;1.70;;;4.50;99.90;;;;;;5058768;28;20060;-42
2023/02/03 01:58:40;;;;;;;3.22;1.70;;;4.50;99.90;;;;;;5007969;28;20128;-44
2023/02/03 02:01:06;;;;;;;3.03;1.65;;;4.50;99.90;;;;;;5059186;28;20029;-44
2023/02/03 02:03:53;;;;;;;3.45;1.60;;;4.50;99.90;;;;;;5036713;28;20033;-42
2023/02/03 02:06:19;;;;;;;3.28;2.55;;;4.50;99.90;;;;;;5055148;28;20384;-44
2023/02/03 02:08:49;;;;;;;6.05;2.80;;;4.50;99.90;;;;;;5055588;28;20036;-43
2023/02/03 02:11:15;;;;;;;3.10;2.15;;;4.50;99.90;;;;;;5055151;28;20033;-44
2023/02/03 02:13:43;;;;;;;2.78;1.60;;;4.50;99.90;;;;;;5055092;28;20033;-43
2023/02/03 02:16:27;;;;;;;2.88;1.63;;;4.40;99.90;;;;;;5055240;28;20029;-44
2023/02/03 02:19:01;;;;;;;4.30;1.80;;;4.40;99.90;;;;;;5036494;28;20037;-44
2023/02/03 02:22:13;;;;;;;2.53;1.65;;;4.30;99.90;;;;;;5055292;28;20082;-44
2023/02/03 02:25:06;;;;;;;5.18;1.70;;;4.40;99.90;;;;;;4957705;28;20443;-43
2023/02/03 02:28:16;;;;;;;3.53;2.30;;;4.30;99.90;;;;;;4957649;28;20541;-45
2023/02/03 02:30:57;;;;;;;3.13;1.70;;;4.40;99.90;;;;;;4935701;29;20153;-42
2023/02/03 02:33:44;;;;;;;5.82;1.90;;;4.40;99.90;;;;;;4935434;29;20396;-44
2023/02/03 02:36:22;;;;;;;3.05;1.60;;;4.30;99.90;;;;;;4935551;29;20136;-42
2023/02/03 02:38:51;;;;;;;2.78;1.90;;;4.30;99.90;;;;;;4935477;29;20074;-44
2023/02/03 02:41:23;;;;;;;5.60;2.33;;;4.30;99.90;;;;;;4935340;29;20040;-45
2023/02/03 02:44:11;;;;;;;2.45;1.50;;;4.30;99.90;;;;;;4935289;29;20593;-42
2023/02/03 02:46:42;;;;;;;4.47;1.70;;;4.30;99.90;;;;;;4919282;29;20043;-43
2023/02/03 02:49:14;;;;;;;3.75;2.13;;;4.30;99.90;;;;;;4935034;29;20039;-43
2023/02/03 02:51:42;;;;;;;4.75;1.95;;;4.30;99.90;;;;;;4934826;29;20126;-44
2023/02/03 02:54:13;;;;;;;3.05;1.73;;;4.30;99.90;;;;;;4934859;29;20059;-44
2023/02/03 02:56:42;;;;;;;3.13;1.70;;;4.30;99.90;;;;;;4934919;29;20055;-44
2023/02/03 02:59:08;;;;;;;5.40;1.70;;;4.20;99.90;;;;;;4935220;29;20035;-44
2023/02/03 03:01:34;;;;;;;3.75;1.70;;;4.30;99.90;;;;;;4995483;28;20036;-42
2023/02/03 03:04:04;;;;;;;3.97;1.88;;;4.30;99.90;;;;;;5054222;28;20434;-44
2023/02/03 03:06:59;;;;;;;3.00;1.67;;;4.30;99.90;;;;;;5054409;28;20031;-44
2023/02/03 03:09:34;;;;;;;3.40;1.40;;;4.40;99.90;;;;;;4973343;28;20043;-44
2023/02/03 03:12:28;;;;;;;2.63;1.92;;;4.30;99.90;;;;;;4971127;28;20189;-43
2023/02/03 03:15:05;;;;;;;2.25;1.67;;;4.30;99.90;;;;;;4972706;28;20098;-44
2023/02/03 03:17:34;;;;;;;4.63;1.98;;;4.30;99.90;;;;;;4953556;29;20074;-42
2023/02/03 03:20:05;;;;;;;3.63;1.88;;;4.30;99.90;;;;;;4953698;29;20480;-44
2023/02/03 03:22:36;;;;;;;2.53;1.53;;;4.30;99.90;;;;;;4972775;28;20031;-44
2023/02/03 03:25:13;;;;;;;2.92;1.70;;;4.30;99.90;;;;;;4972980;28;20280;-43
2023/02/03 03:27:45;;;;;;;4.00;1.80;;;4.30;99.90;;;;;;4940363;28;20121;-44
2023/02/03 03:30:21;;;;;;;3.33;1.95;;;4.30;99.90;;;;;;4972837;28;20026;-42
2023/02/03 03:32:47;;;;;;;2.55;1.83;;;4.30;99.90;;;;;;4972607;28;20511;-43
2023/02/03 03:35:13;;;;;;;2.83;1.90;;;4.30;99.90;;;;;;4972867;28;20042;-44
2023/02/03 03:37:59;;;;;;;2.20;1.88;;;4.30;99.90;;;;;;4972595;28;20079;-44
2023/02/03 03:40:37;;;;;;;2.47;1.60;;;4.40;99.90;;;;;;4972578;28;20061;-44
2023/02/03 03:43:13;;;;;;;3.42;1.95;;;4.40;99.90;;;;;;4972556;28;20434;-42
2023/02/03 03:46:09;;;;;;;4.05;2.50;;;4.40;99.90;;;;;;4963742;28;20103;-44
2023/02/03 03:48:59;;;;;;;3.95;1.92;;;4.40;99.90;;;;;;4972570;28;20030;-42
2023/02/03 03:51:35;;;;;;;2.80;1.77;;;4.40;99.90;;;;;;4959212;28;20035;-44
2023/02/03 03:54:06;;;;;;;4.25;2.58;;;4.50;99.90;;;;;;4972529;28;20055;-43
2023/02/03 03:56:47;;;;;;;2.10;1.50;;;4.60;99.90;;;;;;4972265;28;20477;-42
2023/02/03 03:59:18;;;;;;;5.72;1.73;;;4.60;99.90;;;;;;4961540;28;20510;-57
2023/02/03 04:01:45;;;;;;;3.45;1.83;;;4.60;99.90;;;;;;4961700;28;20491;-54
2023/02/03 04:04:12;;;;;;;2.95;1.85;;;4.60;99.90;;;;;;4977981;28;20022;-45
2023/02/03 04:06:38;;;;;;;4.00;1.88;;;4.50;99.90;;;;;;4978180;28;20494;-43
2023/02/03 04:09:04;;;;;;;2.60;1.73;;;4.40;99.90;;;;;;4977051;28;20027;-43
2023/02/03 04:14:14;;;;;;;4.18;1.85;;;4.50;99.90;;;;;;4972972;28;20042;-51
2023/02/03 04:16:40;;;;;;;3.03;1.80;;;4.40;99.90;;;;;;4972462;28;20030;-44
2023/02/03 04:19:06;;;;;;;2.53;1.70;;;4.40;99.90;;;;;;4972336;28;20078;-43
2023/02/03 04:21:31;;;;;;;4.20;2.05;;;4.30;99.90;;;;;;4972425;28;20485;-43
2023/02/03 04:23:57;;;;;;;5.22;2.35;;;4.30;99.90;;;;;;4971940;28;20043;-43
2023/02/03 04:26:23;;;;;;;3.38;2.00;;;4.30;99.90;;;;;;5043609;28;20160;-42
2023/02/03 04:28:49;;;;;;;3.22;1.92;;;4.30;99.90;;;;;;5053160;28;20040;-43
2023/02/03 04:31:16;;;;;;;4.80;2.55;;;4.30;99.90;;;;;;5053086;28;20087;-44
2023/02/03 04:33:41;;;;;;;3.25;2.13;;;4.30;99.90;;;;;;5034367;28;20047;-43
2023/02/03 04:36:08;;;;;;;2.78;1.75;;;4.20;99.90;;;;;;5052620;28;20113;-44
2023/02/03 04:38:33;;;;;;;4.55;2.00;;;4.30;99.90;;;;;;5053158;28;20354;-45
2023/02/03 04:40:59;;;;;;;3.40;2.13;;;4.30;99.90;;;;;;5034231;28;20043;-44
2023/02/03 04:43:25;;;;;;;3.92;2.08;;;4.30;99.90;;;;;;5053101;28;20453;-43
2023/02/03 04:45:50;;;;;;;4.55;2.10;;;4.30;99.90;;;;;;5034504;28;20047;-44
2023/02/03 04:48:16;;;;;;;3.50;2.20;;;4.30;99.90;;;;;;5034207;28;20087;-44
2023/02/03 04:50:42;;;;;;;3.75;2.35;;;4.30;99.90;;;;;;5052770;28;20445;-43
2023/02/03 04:53:07;;;;;;;3.33;2.22;;;4.30;99.90;;;;;;5052551;28;20036;-44
2023/02/03 04:55:33;;;;;;;4.25;2.50;;;4.40;99.90;;;;;;5052444;28;20048;-44
2023/02/03 04:58:00;;;;;;;3.25;2.22;;;4.30;99.90;;;;;;5052615;28;20037;-44
2023/02/03 05:00:27;;;;;;;3.10;2.20;;;4.40;99.90;;;;;;5052431;28;20025;-44
2023/02/03 05:02:53;;;;;;;10.45;7.38;;;4.40;99.90;;;;;;5052668;28;20075;-42
2023/02/03 05:05:20;;;;;;;7.78;3.85;;;4.40;99.90;;;;;;5052438;28;20067;-42
2023/02/03 05:07:46;;;;;;;7.93;5.38;;;4.40;99.90;;;;;;5037531;28;20040;-44
2023/02/03 05:10:12;;;;;;;8.15;5.57;;;4.30;99.90;;;;;;5063171;28;20071;-44
2023/02/03 05:12:38;;;;;;;3.08;2.70;;;4.30;99.90;;;;;;5073738;28;20048;-43
2023/02/03 05:15:04;;;;;;;6.30;5.35;;;4.30;99.90;;;;;;5073944;28;20044;-43
2023/02/03 05:17:30;;;;;;;5.78;5.00;;;4.40;99.90;;;;;;5054099;28;20546;-44
2023/02/03 05:19:55;;;;;;;7.30;5.28;;;4.40;99.90;;;;;;5057292;28;21005;-44
2023/02/03 05:22:21;;;;;;;6.10;3.45;;;4.30;99.90;;;;;;5073685;28;20596;-44
2023/02/03 05:24:47;;;;;;;9.70;7.05;;;4.40;99.90;;;;;;5073892;28;20123;-44
2023/02/03 05:27:12;;;;;;;4.60;3.55;;;4.40;99.90;;;;;;5073624;28;20055;-42
2023/02/03 05:29:38;;;;;;;4.35;2.65;;;4.40;99.90;;;;;;5039819;28;20052;-44
2023/02/03 05:32:04;;;;;;;3.63;2.47;;;4.50;99.90;;;;;;5074030;28;20119;-44
2023/02/03 05:34:30;;;;;;;3.58;2.42;;;4.50;99.90;;;;;;5040171;28;20055;-43
2023/02/03 05:36:55;;;;;;;4.30;2.78;;;4.60;99.90;;;;;;5040377;28;20515;-43
2023/02/03 05:39:21;;;;;;;4.68;2.85;;;4.60;99.90;;;;;;5060064;28;20595;-42
2023/02/03 05:41:53;;;;;;;4.85;2.95;;;4.60;99.90;;;;;;5054026;28;20029;-44
2023/02/03 05:44:20;;;;;;;5.00;3.03;;;4.60;99.90;;;;;;5055623;28;20031;-43
2023/02/03 05:46:46;;;;;;;4.40;2.80;;;4.70;99.90;;;;;;5055690;28;20029;-44
2023/02/03 05:49:12;;;;;;;4.93;2.60;;;4.70;99.90;;;;;;5037360;28;20041;-43
2023/02/03 05:51:39;;;;;;;6.05;2.70;;;4.70;99.90;;;;;;5055392;28;20029;-46
2023/02/03 05:54:05;;;;;;;5.53;3.10;;;4.70;99.90;;;;;;5035933;28;20079;-45
2023/02/03 05:56:31;;;;;;;5.43;3.63;;;4.80;99.90;;;;;;5055614;28;20405;-44
2023/02/03 05:58:57;;;;;;;6.82;3.97;;;4.70;99.90;;;;;;5055909;28;20055;-44
2023/02/03 06:01:23;;;;;;;5.85;4.20;;;4.70;99.90;;;;;;5055429;28;20028;-44
2023/02/03 06:03:49;;;;;;;4.50;3.60;;;4.70;99.90;;;;;;5053385;28;20029;-42
2023/02/03 06:06:16;;;;;;;8.23;4.75;;;4.70;99.90;;;;;;5053890;28;20124;-43
2023/02/03 06:08:42;;;;;;;6.97;5.53;;;4.70;99.90;;;;;;5054272;28;20036;-43
2023/02/03 06:11:08;;;;;;;8.63;4.68;;;4.80;99.90;;;;;;5036314;28;20374;-44
2023/02/03 06:13:34;;;;;;;7.90;5.50;;;4.80;99.90;;;;;;5054559;28;20060;-43
2023/02/03 06:16:00;;;;;;;8.52;5.38;;;4.80;99.90;;;;;;5054559;28;20069;-44
2023/02/03 06:18:25;;;;;;;6.85;4.25;;;4.80;99.90;;;;;;5053502;28;20029;-45
2023/02/03 06:20:51;;;;;;;6.80;4.28;;;4.70;99.90;;;;;;5052459;28;20047;-44
2023/02/03 06:23:17;;;;;;;6.38;4.10;;;4.70;99.90;;;;;;5053930;28;20064;-46
2023/02/03 06:25:44;;;;;;;7.30;4.93;;;4.70;99.90;;;;;;5075687;28;20036;-46
2023/02/03 06:28:10;;;;;;;5.78;4.28;;;4.70;99.90;;;;;;5035994;28;20096;-46
2023/02/03 06:30:36;;;;;;;6.80;4.65;;;4.70;99.90;;;;;;5053240;28;20120;-46
2023/02/03 06:33:01;;;;;;;9.07;5.47;;;4.90;99.90;;;;;;5054231;28;20159;-46
2023/02/03 06:35:27;;;;;;;7.93;5.93;;;5.30;99.90;;;;;;5053061;28;20064;-51
2023/02/03 06:37:53;;;;;;;7.00;5.32;;;6.00;99.90;;;;;;5036036;28;20040;-42
2023/02/03 06:40:19;;;;;;;6.50;4.18;;;;;;;;;;5054640;28;20542;-43
2023/02/03 06:42:46;;;;;;;7.82;5.32;;;9.00;99.90;;;;;;5052734;28;20037;-45
2023/02/03 06:45:12;;;;;;;6.28;5.10;;;;;;;;;;5054479;28;20025;-42
2023/02/03 06:47:42;;;;;;;8.07;6.07;;;12.40;99.90;;;;;;5054992;28;20112;-42
2023/02/03 06:50:10;;;;;;;11.25;6.28;;;14.00;99.90;;;;;;5054991;28;20036;-43
2023/02/03 06:52:36;;;;;;;12.77;8.50;;;15.40;99.90;;;;;;5054575;28;20025;-42
2023/02/03 06:55:03;;;;;;;8.15;5.57;;;;;;;;;;5054421;28;20484;-43
2023/02/03 06:57:29;;;;;;;6.82;4.80;;;;;;;;;;5032263;28;20141;-45
2023/02/03 06:59:55;;;;;;;6.85;4.78;;;18.90;93.20;;;;;;5034702;28;20029;-43
2023/02/03 07:02:21;;;;;;;5.63;3.55;;;;;;;;;;5034542;28;20030;-43
2023/02/03 07:04:47;;;;;;;6.00;4.63;;;20.60;89.90;;;;;;5048955;28;20044;-43
2023/02/03 07:07:13;;;;;;;4.88;3.85;;;;;;;;;;5049123;28;20045;-43
2023/02/03 07:09:39;;;;;;;4.53;3.65;;;;;;;;;;5034384;28;20484;-43
2023/02/03 07:12:06;;;;;;;6.03;4.05;;;;;;;;;;5049137;28;20401;-43
2023/02/03 07:14:34;;;;;;;5.07;4.22;;;;;;;;;;5034184;28;20069;-43
2023/02/03 07:17:01;;;;;;;7.60;5.57;;;24.00;78.50;;;;;;5034477;28;20076;-43
2023/02/03 07:19:28;;;;;;;9.50;5.30;;;22.80;77.10;;;;;;5034044;28;20029;-44
2023/02/03 07:21:54;;;;;;;8.60;5.75;;;;;;;;;;5048562;28;20041;-43
2023/02/03 07:24:20;;;;;;;9.02;5.20;;;;;;;;;;5034048;28;20033;-43
2023/02/03 07:26:46;;;;;;;7.30;4.75;;;16.90;79.00;;;;;;4998859;28;20120;-43
2023/02/03 07:29:12;;;;;;;5.82;4.10;;;;;;;;;;5048394;28;20033;-44
2023/02/03 07:31:38;;;;;;;5.72;3.53;;;;;;;;;;5033127;28;20026;-44
2023/02/03 07:34:05;;;;;;;6.55;4.10;;;;;;;;;;5034066;28;20048;-43
2023/02/03 07:36:31;;;;;;;6.15;3.67;;;11.80;91.80;;;;;;5034163;28;20388;-43
2023/02/03 07:38:57;;;;;;;5.95;4.10;;;;;;;;;;5031889;28;20627;-43
2023/02/03 07:41:23;;;;;;;6.90;5.53;;;10.90;91.40;;;;;;5048558;28;20091;-43
2023/02/03 07:43:49;;;;;;;6.18;4.70;;;11.60;92.10;;;;;;5033416;28;20424;-43
2023/02/03 07:46:15;;;;;;;8.57;5.82;;;13.10;91.60;;;;;;5034151;28;20104;-43
2023/02/03 07:48:40;;;;;;;5.78;4.40;;;15.30;91.10;;;;;;5048048;28;20056;-44
2023/02/03 07:51:06;;;;;;;6.25;5.57;;;16.30;88.10;;;;;;5033689;28;20527;-43
2023/02/03 07:53:32;;;;;;;9.20;8.30;;;;;;;;;;5048043;28;20045;-43
2023/02/03 07:56:02;;;;;;;12.25;9.68;;;19.40;84.10;;;;;;5039229;28;20045;-44
2023/02/03 07:58:28;;;;;;;9.60;7.35;;;19.60;84.00;;;;;;5053682;28;20029;-44
2023/02/03 08:00:55;;;;;;;8.80;7.43;;;19.90;82.10;;;;;;5051572;28;20071;-44
2023/02/03 08:03:21;;;;;;;9.10;8.23;;;20.70;81.00;;;;;;5051239;28;20067;-43
2023/02/03 08:05:47;;;;;;;13.57;12.38;;;19.90;78.80;;;;;;5053064;28;20056;-43
2023/02/03 08:08:13;;;;;;;8.75;7.95;;;20.90;79.70;;;;;;5051259;28;20099;-43
2023/02/03 08:10:39;;;;;;;7.80;7.10;;;20.10;80.20;;;;;;5053458;28;20025;-43
2023/02/03 08:13:05;;;;;;;8.45;7.72;;;18.50;81.20;;;;;;5052915;28;20037;-43
2023/02/03 08:15:30;;;;;;;7.00;6.05;;;18.50;82.00;;;;;;5053086;28;20074;-43
2023/02/03 08:17:56;;;;;;;12.38;11.48;;;18.90;81.40;;;;;;5051128;28;20477;-43
2023/02/03 08:20:22;;;;;;;10.60;7.85;;;18.80;81.70;;;;;;5051737;28;20040;-43
2023/02/03 08:22:47;;;;;;;12.30;11.30;;;17.50;82.00;;;;;;5050892;28;20107;-45
2023/02/03 08:25:13;;;;;;;7.60;6.88;;;16.90;83.20;;;;;;5052871;28;20029;-43
2023/02/03 08:27:40;;;;;;;11.82;10.63;;;17.00;83.40;;;;;;5053265;28;20057;-44
2023/02/03 08:30:13;;;;;;;7.47;6.30;;;17.30;84.10;;;;;;5052883;28;20071;-43
2023/02/03 08:32:39;;;;;;;5.35;4.07;;;17.70;83.00;;;;;;5051111;28;20047;-44
2023/02/03 08:35:06;;;;;;;6.65;5.07;;;15.20;83.70;;;;;;5052594;28;20111;-43
2023/02/03 08:37:31;;;;;;;6.80;6.10;;;15.80;84.60;;;;;;5034007;28;20396;-43
2023/02/03 08:39:58;;;;;;;7.82;5.72;;;15.80;85.70;;;;;;5046046;28;20036;-47
2023/02/03 08:42:24;;;;;;;6.38;4.80;;;14.90;86.30;;;;;;5052696;28;20032;-49
2023/02/03 08:44:50;;;;;;;6.78;5.53;;;15.80;93.20;;;;;;5054821;28;20120;-47
2023/02/03 08:47:16;;;;;;;7.85;7.07;;;16.30;92.50;;;;;;5036746;28;20091;-47
2023/02/03 08:49:41;;;;;;;10.85;9.77;;;16.40;90.80;;;;;;5036754;28;20037;-46
2023/02/03 08:52:10;;;;;;;18.98;17.63;;;16.50;91.50;;;;;;5053808;28;20036;-44
2023/02/03 08:54:37;;;;;;;25.50;23.73;;;17.00;91.30;;;;;;5031950;28;20505;-47
2023/02/03 08:57:03;;;;;;;6.70;6.20;;;16.70;83.70;;;;;;5029222;28;20057;-47
2023/02/03 08:59:29;;;;;;;7.38;6.40;;;15.20;89.20;;;;;;5032938;28;20044;-47
2023/02/03 09:01:55;;;;;;;6.60;5.35;;;16.00;88.50;;;;;;5034381;28;20029;-47
2023/02/03 09:04:23;;;;;;;8.80;8.20;;;15.40;84.60;;;;;;5017165;28;20478;-47
2023/02/03 09:06:55;;;;;;;5.85;5.10;;;16.20;85.10;;;;;;5031113;28;20472;-47
2023/02/03 09:09:22;;;;;;;7.97;7.28;;;16.00;85.70;;;;;;5034277;28;20069;-47
2023/02/03 09:11:48;;;;;;;9.23;8.32;;;16.20;85.60;;;;;;5034339;28;20037;-47
2023/02/03 09:14:13;;;;;;;4.75;4.35;;;16.20;89.20;;;;;;5034205;28;20048;-46
2023/02/03 09:16:39;;;;;;;7.55;6.88;;;15.80;86.60;;;;;;5034266;28;20032;-46
2023/02/03 09:19:05;;;;;;;6.28;5.45;;;16.60;84.90;;;;;;5031038;28;20504;-45
2023/02/03 09:21:32;;;;;;;9.75;8.70;;;;;;;;;;5033346;28;20029;-49
2023/02/03 09:24:02;;;;;;;6.60;6.00;;;;;;;;;;5030521;28;20433;-48
2023/02/03 09:26:27;;;;;;;5.63;5.10;;;18.70;84.80;;;;;;5031636;28;20481;-48
2023/02/03 09:28:53;;;;;;;5.50;5.00;;;16.90;84.40;;;;;;5050992;28;20037;-48
2023/02/03 09:31:19;;;;;;;6.03;5.28;;;16.80;84.10;;;;;;5055871;28;20498;-46
2023/02/03 09:33:45;;;;;;;8.05;7.38;;;16.60;82.90;;;;;;5016491;28;20053;-46
2023/02/03 09:36:11;;;;;;;6.68;4.65;;;16.80;85.00;;;;;;5041975;28;20036;-46
2023/02/03 09:38:38;;;;;;;4.47;4.07;;;15.80;84.50;;;;;;5054797;28;20055;-46
2023/02/03 09:41:06;;;;;;;7.65;6.95;;;15.80;84.30;;;;;;5058458;28;20118;-46
2023/02/03 09:43:37;;;;;;;8.35;6.53;;;;;;;;;;5052775;28;20041;-46
2023/02/03 09:46:16;;;;;;;6.40;3.90;;;18.30;84.90;;;;;;5060019;28;20533;-46
2023/02/03 09:48:51;;;;;;;4.63;2.97;;;16.40;83.10;;;;;;5055682;28;20384;-46
2023/02/03 09:51:33;;;;;;;5.65;2.90;;;15.80;85.20;;;;;;5058246;28;20040;-45
2023/02/03 09:54:16;;;;;;;2.92;2.60;;;14.60;86.10;;;;;;5054995;28;20075;-47
2023/02/03 09:56:49;;;;;;;5.53;3.47;;;13.50;88.00;;;;;;5041412;28;20488;-46
2023/02/03 09:59:15;;;;;;;3.78;3.20;;;14.20;89.30;;;;;;5039321;28;20032;-46
2023/02/03 10:02:01;;;;;;;4.38;2.65;;;14.20;90.30;;;;;;5049008;28;20059;-47
2023/02/03 10:04:51;;;;;;;6.57;4.15;;;14.40;89.20;;;;;;5047068;28;20021;-45
2023/02/03 10:07:42;;;;;;;3.53;3.22;;;15.10;87.40;;;;;;5048555;28;20370;-46
2023/02/03 10:10:35;;;;;;;4.03;3.63;;;14.80;87.70;;;;;;5041412;28;20497;-47
2023/02/03 10:13:19;;;;;;;5.13;4.63;;;15.40;88.10;;;;;;5044009;28;20029;-46
2023/02/03 10:16:00;;;;;;;7.82;6.75;;;16.20;86.80;;;;;;5045383;28;20068;-45
2023/02/03 10:18:37;;;;;;;6.13;5.53;;;16.10;86.00;;;;;;5047596;28;20106;-46
2023/02/03 10:21:18;;;;;;;5.18;4.78;;;16.80;85.90;;;;;;5031737;28;20069;-46
2023/02/03 10:23:47;;;;;;;4.80;4.30;;;15.70;85.20;;;;;;5060898;28;20035;-46
2023/02/03 10:26:24;;;;;;;5.95;5.45;;;16.10;86.40;;;;;;5055779;28;20020;-46
2023/02/03 10:28:55;;;;;;;8.10;7.60;;;16.40;85.90;;;;;;5036621;28;20043;-46
2023/02/03 10:31:23;;;;;;;5.05;4.68;;;16.00;84.90;;;;;;5063035;28;20522;-46
2023/02/03 10:34:14;;;;;;;6.05;5.53;;;16.50;83.30;;;;;;5056659;28;20059;-46
2023/02/03 10:36:56;;;;;;;8.85;8.15;;;16.60;83.80;;;;;;5054312;28;20076;-46
2023/02/03 10:39:32;;;;;;;12.48;11.68;;;16.40;83.40;;;;;;5034485;28;20114;-47
2023/02/03 10:41:59;;;;;;;10.23;9.60;;;16.30;84.20;;;;;;5055320;28;20037;-46
2023/02/03 10:44:38;;;;;;;13.60;12.38;;;16.60;84.00;;;;;;5060343;28;20502;-47
2023/02/03 10:47:45;;;;;;;8.30;7.70;;;16.20;84.10;;;;;;5015115;28;20444;-45
2023/02/03 10:50:31;;;;;;;3.28;2.90;;;16.20;84.10;;;;;;5008527;28;20046;-45
2023/02/03 10:53:31;;;;;;;4.47;4.18;;;16.20;83.80;;;;;;4973302;28;20058;-45
2023/02/03 10:56:10;;;;;;;6.57;3.97;;;14.90;83.60;;;;;;4930978;29;20492;-46
2023/02/03 10:58:37;;;;;;;4.10;3.80;;;15.80;86.50;;;;;;4933551;29;20039;-45
2023/02/03 11:01:10;;;;;;;5.45;4.95;;;16.00;83.80;;;;;;4931179;29;20099;-45
2023/02/03 11:03:39;;;;;;;6.38;5.80;;;16.70;84.30;;;;;;4915296;29;20098;-47
2023/02/03 11:06:16;;;;;;;6.03;4.95;;;17.00;82.90;;;;;;4932193;29;20035;-46
2023/02/03 11:08:47;;;;;;;7.22;6.53;;;17.20;82.70;;;;;;4929049;29;20034;-45
2023/02/03 11:11:25;;;;;;;4.97;4.57;;;16.90;81.70;;;;;;4926356;29;20138;-46
2023/02/03 11:14:01;;;;;;;6.45;5.85;;;16.90;82.20;;;;;;4931693;29;20035;-46
2023/02/03 11:16:28;;;;;;;14.45;9.32;;;17.80;81.70;;;;;;4915812;29;20032;-46
2023/02/03 11:19:06;;;;;;;11.07;7.03;;;17.80;81.10;;;;;;4932887;29;20036;-46
2023/02/03 11:21:39;;;;;;;14.77;9.65;;;;;;;;;;4932259;29;20036;-46
2023/02/03 11:24:05;;;;;;;16.80;8.60;;;;;;;;;;4921938;29;20449;-46
2023/02/03 11:26:40;;;;;;;9.85;5.55;;;16.10;82.50;;;;;;4955006;28;20035;-48
2023/02/03 11:29:18;;;;;;;3.50;3.20;;;16.10;84.40;;;;;;4978020;28;20031;-46
2023/02/03 11:31:47;;;;;;;3.83;3.30;;;16.10;83.40;;;;;;5005024;28;20040;-47
2023/02/03 11:34:23;;;;;;;4.72;3.97;;;15.80;86.20;;;;;;5050964;28;20037;-46
2023/02/03 11:36:49;;;;;;;6.43;4.50;;;15.50;82.70;;;;;;5046129;28;20029;-46
2023/02/03 11:39:44;;;;;;;6.10;3.50;;;15.50;82.40;;;;;;5058565;28;20099;-46
2023/02/03 11:42:23;;;;;;;6.60;3.03;;;15.90;83.10;;;;;;4987857;28;20039;-46
2023/02/03 11:44:49;;;;;;;9.32;4.28;;;16.50;81.90;;;;;;4957957;28;20030;-46
2023/02/03 11:47:17;;;;;;;10.73;5.60;;;;;;;;;;4958539;28;20050;-46
2023/02/03 11:49:53;;;;;;;9.52;6.38;;;15.30;83.00;;;;;;4983186;28;20030;-47
2023/02/03 11:52:34;;;;;;;11.05;7.60;;;14.40;85.30;;;;;;4984330;28;20046;-46
2023/02/03 11:55:31;;;;;;;14.37;9.13;;;13.90;86.00;;;;;;4977224;28;20039;-46
2023/02/03 11:58:30;;;;;;;8.38;6.75;;;13.70;86.80;;;;;;4986789;28;20739;-46
2023/02/03 12:01:05;;;;;;;5.20;3.22;;;13.50;86.60;;;;;;4983812;28;20113;-46
2023/02/03 12:03:50;;;;;;;6.32;4.32;;;12.70;87.70;;;;;;4982593;28;20533;-47
2023/02/03 12:06:15;;;;;;;8.13;4.03;;;12.70;87.20;;;;;;4979269;28;20074;-46
2023/02/03 12:08:47;;;;;;;8.10;4.70;;;;;;;;;;4984047;28;20065;-50
2023/02/03 12:11:15;;;;;;;3.63;2.08;;;12.10;97.50;;;;;;4981037;28;20435;-48
2023/02/03 12:14:18;;;;;;;10.20;3.65;;;12.00;89.50;;;;;;4967876;28;20046;-48
2023/02/03 12:17:14;;;;;;;8.30;3.47;;;11.80;90.40;;;;;;4964439;28;20053;-47
2023/02/03 12:20:13;;;;;;;28.92;14.30;;;12.00;90.30;;;;;;4991121;28;20061;-49
2023/02/03 12:22:56;;;;;;;12.18;6.38;;;11.80;90.20;;;;;;4997892;28;20541;-47
2023/02/03 12:25:27;;;;;;;8.35;4.75;;;12.00;91.20;;;;;;4994673;28;20061;-49
2023/02/03 12:28:10;;;;;;;11.13;5.20;;;11.90;91.80;;;;;;5003044;28;20025;-47
2023/02/03 12:30:48;;;;;;;7.53;4.45;;;11.90;90.70;;;;;;4981915;28;20038;-48
2023/02/03 12:33:22;;;;;;;9.43;4.70;;;11.80;90.50;;;;;;4992750;28;20045;-47
2023/02/03 12:35:51;;;;;;;6.28;3.50;;;11.90;90.90;;;;;;4988622;28;20034;-48
2023/02/03 12:38:26;;;;;;;13.15;7.00;;;11.80;91.00;;;;;;5009599;28;20034;-46
2023/02/03 12:40:58;;;;;;;14.00;7.45;;;11.80;91.10;;;;;;4998188;28;20055;-47
2023/02/03 12:43:37;;;;;;;4.40;2.15;;;11.50;91.10;;;;;;4979124;28;20149;-47
2023/02/03 12:46:13;;;;;;;5.65;2.70;;;11.50;91.20;;;;;;4965913;28;20061;-46
2023/02/03 12:49:03;;;;;;;3.95;1.80;;;11.60;91.40;;;;;;4986301;28;20057;-49
2023/02/03 12:51:58;;;;;;;4.38;2.33;;;11.00;92.70;;;;;;4993970;28;20442;-47
2023/02/03 12:54:51;;;;;;;11.95;8.15;;;11.50;90.80;;;;;;5000201;28;20035;-48
2023/02/03 12:57:29;;;;;;;6.22;3.75;;;11.50;91.10;;;;;;5045309;28;20049;-46
2023/02/03 13:00:12;;;;;;;7.03;4.05;;;11.60;91.00;;;;;;5055369;28;20028;-48
2023/02/03 13:02:55;;;;;;;4.57;2.85;;;11.60;91.30;;;;;;5055574;28;20044;-49
2023/02/03 13:05:40;;;;;;;5.20;2.65;;;11.50;91.30;;;;;;5053948;28;20059;-47
2023/02/03 13:08:25;;;;;;;5.32;1.98;;;11.70;90.80;;;;;;5046531;28;20028;-46
2023/02/03 13:11:15;;;;;;;13.68;3.58;;;11.80;91.00;;;;;;5040423;28;20159;-47
2023/02/03 13:14:20;;;;;;;16.10;7.50;;;11.90;91.40;;;;;;5056155;28;20033;-46
2023/02/03 13:16:52;;;;;;;4.10;2.20;;;11.90;91.00;;;;;;4988523;28;20030;-47
2023/02/03 13:19:22;;;;;;;11.50;2.40;;;11.90;90.60;;;;;;4991556;28;20514;-46
2023/02/03 13:21:48;;;;;;;6.15;2.83;;;11.70;90.40;;;;;;4992371;28;20086;-46